Terminal Aerodrome Forecast
Issued by NWS Wilmington, OH

Current Version | Previous Version | Graphics & Text | Print | Product List | Glossary On
Versions: 1 2 3 4 5 6 7 8 9 10 11 12 13 14 15 16 17 18 19 20 21 22 23 24 25 26 27
696
FTUS41 KILN 300805 AAA
TAFCMH
TAF AMD
KCMH 300805Z 3008/0106 08007KT P6SM VCSH SCT016 BKN024 OVC040
      TEMPO 3008/3012 4SM BR OVC009
     FM301200 10010KT 3SM BR VCSH OVC009
     FM301600 12009KT P6SM -SHRA VCTS SCT015CB BKN035
     FM301900 12007KT P6SM -SHRA BKN035
     FM010000 14003KT P6SM BKN040=

USA.gov is the U.S. government's official web portal to all federal, state and local government web resources and services.